Time;durP1;ratioP1;P1;durP2;ratioP2;P2;SDS_P1;SDS_P2;PMS_P1;PMS_P2;Temp;Humidity;BMP_temperature;BMP_pressure;BME280_temperature;BME280_humidity;BME280_pressure;Samples;Min_cycle;Max_cycle;Signal;HPM_P1;HPM_P2
2021/05/30 21:41:09;;;;;;;;;5.00;4.75;;;;;;;;5090546;27;45578;-69
2021/05/30 21:43:34;;;;;;;;;4.00;4.00;;;;;;;;5084496;27;45595;-61
2021/05/30 21:46:00;;;;;;;;;4.67;4.00;;;;;;;;5090857;27;45584;-60
2021/05/30 21:48:25;;;;;;;;;3.75;3.25;;;;;;;;5088264;27;45646;-67
2021/05/30 21:50:50;;;;;;;;;6.50;5.75;;;;;;;;5082255;27;46423;-66
2021/05/30 21:53:16;;;;;;;;;5.00;4.33;;;;;;;;5088894;27;45478;-59
2021/05/30 21:55:41;;;;;;;;;6.00;5.00;;;;;;;;5090879;27;45547;-59
2021/05/30 21:58:07;;;;;;;;;6.00;5.50;;;;;;;;5092169;27;45399;-59
2021/05/30 22:00:38;;;;;;;;;6.00;5.25;;;;;;;;5091410;27;45518;-60
2021/05/30 22:03:03;;;;;;;;;5.25;4.25;;;;;;;;5091467;27;45431;-59
2021/05/30 22:05:28;;;;;;;;;7.00;5.00;;;;;;;;5085305;27;45475;-60
2021/05/30 22:07:54;;;;;;;;;5.00;5.00;;;;;;;;5071203;28;45365;-58
2021/05/30 22:10:19;;;;;;;;;8.33;8.33;;;;;;;;5082088;27;45415;-61
2021/05/30 22:12:45;;;;;;;;;4.00;4.00;;;;;;;;5087502;27;45585;-60
2021/05/30 22:15:22;;;;;;;;;4.75;4.75;;;;;;;;5080758;27;45845;-61
2021/05/30 22:20:23;;;;;;;;;5.75;5.00;;;;;;;;5089376;27;46243;-60
2021/05/30 22:22:49;;;;;;;;;5.00;5.00;;;;;;;;5075473;27;45737;-60
2021/05/30 22:25:16;;;;;;;;;16.50;12.25;;;;;;;;5087124;27;45494;-60
2021/05/30 22:27:42;;;;;;;;;5.75;5.75;;;;;;;;5082826;27;45402;-59
2021/05/30 22:30:07;;;;;;;;;6.33;5.33;;;;;;;;5085371;27;46409;-60
2021/05/30 22:32:33;;;;;;;;;3.75;3.75;;;;;;;;5077452;27;45463;-61
2021/05/30 22:34:58;;;;;;;;;5.50;5.50;;;;;;;;5073945;27;45321;-60
2021/05/30 22:37:24;;;;;;;;;6.00;6.00;;;;;;;;5084365;27;45524;-60
2021/05/30 22:39:50;;;;;;;;;5.00;5.00;;;;;;;;5085549;27;45745;-59
2021/05/30 22:42:16;;;;;;;;;5.00;5.00;;;;;;;;5078011;27;45883;-60
2021/05/30 22:44:41;;;;;;;;;8.50;7.50;;;;;;;;5087268;27;45660;-59
2021/05/30 22:47:09;;;;;;;;;6.50;5.75;;;;;;;;5082527;27;45728;-56
2021/05/30 22:49:37;;;;;;;;;6.50;6.25;;;;;;;;5059595;27;46504;-60
2021/05/30 22:52:04;;;;;;;;;9.25;8.00;;;;;;;;5076619;27;45411;-57
2021/05/30 22:54:29;;;;;;;;;12.25;9.25;;;;;;;;5072363;28;45376;-58
2021/05/30 22:56:58;;;;;;;;;9.50;9.50;;;;;;;;5067222;27;45464;-65
2021/05/30 22:59:27;;;;;;;;;10.50;9.00;;;;;;;;5063531;27;45560;-60
2021/05/30 23:01:52;;;;;;;;;10.25;9.25;;;;;;;;5071968;27;45534;-60
2021/05/30 23:04:18;;;;;;;;;13.00;11.25;;;;;;;;5071144;27;45345;-62
2021/05/30 23:06:43;;;;;;;;;13.75;13.00;;;;;;;;5063609;28;45943;-61
2021/05/30 23:09:09;;;;;;;;;13.25;10.75;;;;;;;;5065003;28;46393;-63
2021/05/30 23:11:36;;;;;;;;;15.75;13.75;;;;;;;;5072213;27;45243;-61
2021/05/30 23:14:02;;;;;;;;;16.25;14.75;;;;;;;;5057925;28;45599;-60
2021/05/30 23:16:28;;;;;;;;;13.75;13.00;;;;;;;;5073917;28;45521;-61
2021/05/30 23:18:53;;;;;;;;;15.00;13.50;;;;;;;;5062801;28;47208;-60
2021/05/30 23:21:19;;;;;;;;;14.50;14.00;;;;;;;;5065905;28;45472;-60
2021/05/30 23:23:44;;;;;;;;;13.25;13.25;;;;;;;;5074734;28;45488;-60
2021/05/30 23:26:10;;;;;;;;;16.67;12.67;;;;;;;;5066665;28;45468;-58
2021/05/30 23:28:35;;;;;;;;;12.50;11.75;;;;;;;;5071278;28;45510;-58
2021/05/30 23:31:00;;;;;;;;;10.50;9.50;;;;;;;;5058330;28;45647;-60
2021/05/30 23:33:26;;;;;;;;;11.50;10.00;;;;;;;;5062119;28;45741;-61
2021/05/30 23:35:51;;;;;;;;;10.00;9.00;;;;;;;;5064441;28;45445;-60
2021/05/30 23:38:16;;;;;;;;;7.00;7.00;;;;;;;;5064262;28;46236;-59
2021/05/30 23:40:42;;;;;;;;;8.33;7.00;;;;;;;;5084439;27;45393;-59
2021/05/30 23:43:08;;;;;;;;;8.50;7.75;;;;;;;;5113296;27;46259;-58
2021/05/30 23:45:33;;;;;;;;;9.00;8.00;;;;;;;;5084034;27;45567;-62
2021/05/30 23:47:58;;;;;;;;;9.00;9.00;;;;;;;;5092764;27;45378;-63
2021/05/30 23:50:25;;;;;;;;;8.25;8.25;;;;;;;;5093603;27;45734;-64
2021/05/30 23:52:54;;;;;;;;;9.75;7.75;;;;;;;;5077330;27;46040;-63
2021/05/30 23:55:19;;;;;;;;;8.25;7.25;;;;;;;;5071968;27;45488;-63
2021/05/30 23:57:45;;;;;;;;;8.00;8.00;;;;;;;;5096065;27;46064;-62
